Clallam Bay, Washington
Current Conditions -  °F | °C
As of 1:53 PM on Thursday 27 Nov 2014 (Local Time) from KUIL Reporting Station
Haze Haze  
Wind Chill: 55°   Ceiling: 500
Heat Index: 55°   Visibility: 3mi
Dew Point: 55°   Wind: 9mph
Humidity: 100%   Direction: 210°SSW
Pressure: 29.74"   Gusts: 23mph
Location:  48.25°N, 124.26°W
Report Text: KUIL 272153Z AUTO 21008G20KT 3SM BR OVC005 13/13 A2974 RMK AO2 RAB2055E06 SLP072 P0000 T01280128
Loading
Personal Weather Stations






























Interactive Weather Map New forecast layout! Learn more

10-Day Weather Forecast

Advertisements
Track Severe Weather on mobile